Hlavní strana
METAR-TAF:

METAR-TAF

Letiště :

Darlington County Jetport

Darlington, Jižní Karolína, Spojené státy americké

zeměpisná šířka: 34-26-57N, zeměpisná délka: 079-53-25W, výška: 59 m

Aktuální stav počasí

Zpráva byla vytvořena před 54 minutami, v 06:56 UTC
Bezvětří
Teplota 21°C
Vlhkost vzduchu 100%
Tlak 1017 hPa
Viditelnost: 16.1 km
Zataženo ve výšce 400 ft

METAR: KUDG 280656Z AUTO 00000KT 10SM OVC004 21/21 A3002 RMK AO2 CIG 003V008 SLP164 P0003 T02110211

Čas: 03:50 (07:50 UTC)


TAF: chybějící

Stav a předpovědi počasí z více než 4 000 letišť (zprávy METAR a TAF).

Červené a žluté tečky na mapě představují dostupné meteorologické stanice.

Když kurzor umístíte na tečku, zobrazí se název stanice.

Pak kliknutím zobrazíte stav a předpověď počasí.

Chcete-li změnit mapu, kliknutím na zelené tlačítko se znaménkem +mapu přiblížíte, kliknutím na zelené tlačítko se znaménkem – mapu oddálíte a kliknutím na zelené šipky přejdete na sousední mapy.


METAR-TAF: